sensor_id;sensor_type;location;lat;lon;timestamp;pressure;altitude;pressure_sealevel;temperature;humidity
71643;BME280;59438;45.014;39.006;2022-11-04T00:00:53;101397.53;;;11.05;72.94
71643;BME280;59438;45.014;39.006;2022-11-04T00:03:19;101399.22;;;11.07;73.51
71643;BME280;59438;45.014;39.006;2022-11-04T00:05:45;101399.22;;;11.07;73.89
71643;BME280;59438;45.014;39.006;2022-11-04T00:08:12;101400.97;;;11.07;73.75
71643;BME280;59438;45.014;39.006;2022-11-04T00:10:38;101392.22;;;11.08;73.22
71643;BME280;59438;45.014;39.006;2022-11-04T00:13:06;101386.94;;;11.08;73.73
71643;BME280;59438;45.014;39.006;2022-11-04T00:15:35;101376.50;;;11.05;73.70
71643;BME280;59438;45.014;39.006;2022-11-04T00:18:02;101377.31;;;11.07;73.80
71643;BME280;59438;45.014;39.006;2022-11-04T00:20:28;101384.34;;;11.06;73.88
71643;BME280;59438;45.014;39.006;2022-11-04T00:22:54;101389.69;;;11.03;73.08
71643;BME280;59438;45.014;39.006;2022-11-04T00:25:21;101386.31;;;11.00;73.61
71643;BME280;59438;45.014;39.006;2022-11-04T00:27:47;101392.47;;;10.97;73.47
71643;BME280;59438;45.014;39.006;2022-11-04T00:30:15;101384.69;;;10.94;73.37
71643;BME280;59438;45.014;39.006;2022-11-04T00:32:41;101386.53;;;10.91;73.91
71643;BME280;59438;45.014;39.006;2022-11-04T00:35:09;101401.53;;;10.87;73.50
71643;BME280;59438;45.014;39.006;2022-11-04T00:37:36;101391.00;;;10.87;74.23
71643;BME280;59438;45.014;39.006;2022-11-04T00:40:03;101378.13;;;10.78;74.30
71643;BME280;59438;45.014;39.006;2022-11-04T00:42:30;101386.75;;;10.83;74.03
71643;BME280;59438;45.014;39.006;2022-11-04T00:44:56;101393.75;;;10.84;74.27
71643;BME280;59438;45.014;39.006;2022-11-04T00:47:24;101393.78;;;10.82;73.91
71643;BME280;59438;45.014;39.006;2022-11-04T00:49:51;101396.44;;;10.81;73.89
71643;BME280;59438;45.014;39.006;2022-11-04T00:52:17;101390.34;;;10.79;74.31
71643;BME280;59438;45.014;39.006;2022-11-04T00:54:44;101387.69;;;10.80;74.72
71643;BME280;59438;45.014;39.006;2022-11-04T00:57:10;101378.03;;;10.81;73.56
71643;BME280;59438;45.014;39.006;2022-11-04T00:59:37;101384.19;;;10.81;74.58
71643;BME280;59438;45.014;39.006;2022-11-04T01:02:03;101377.19;;;10.80;74.81
71643;BME280;59438;45.014;39.006;2022-11-04T01:04:32;101368.47;;;10.78;74.41
71643;BME280;59438;45.014;39.006;2022-11-04T01:06:58;101371.16;;;10.77;74.10
71643;BME280;59438;45.014;39.006;2022-11-04T01:09:25;101354.94;;;10.61;74.58
71643;BME280;59438;45.014;39.006;2022-11-04T01:11:51;101382.72;;;10.71;74.36
71643;BME280;59438;45.014;39.006;2022-11-04T01:14:18;101373.19;;;10.67;74.52
71643;BME280;59438;45.014;39.006;2022-11-04T01:16:45;101368.81;;;10.66;74.26
71643;BME280;59438;45.014;39.006;2022-11-04T01:19:11;101363.56;;;10.66;74.76
71643;BME280;59438;45.014;39.006;2022-11-04T01:21:39;101357.69;;;10.56;74.32
71643;BME280;59438;45.014;39.006;2022-11-04T01:24:06;101363.75;;;10.58;74.34
71643;BME280;59438;45.014;39.006;2022-11-04T01:26:32;101355.16;;;10.53;74.66
71643;BME280;59438;45.014;39.006;2022-11-04T01:28:59;101355.31;;;10.47;74.75
71643;BME280;59438;45.014;39.006;2022-11-04T01:31:26;101352.03;;;10.39;75.12
71643;BME280;59438;45.014;39.006;2022-11-04T01:33:53;101363.50;;;10.35;74.73
71643;BME280;59438;45.014;39.006;2022-11-04T01:36:20;101368.03;;;10.30;74.75
71643;BME280;59438;45.014;39.006;2022-11-04T01:38:49;101363.66;;;10.27;74.67
71643;BME280;59438;45.014;39.006;2022-11-04T01:41:18;101330.06;;;10.07;74.96
71643;BME280;59438;45.014;39.006;2022-11-04T01:43:48;101359.50;;;10.18;75.11
71643;BME280;59438;45.014;39.006;2022-11-04T01:46:21;101350.00;;;10.13;75.56
71643;BME280;59438;45.014;39.006;2022-11-04T01:48:50;101336.31;;;10.01;75.23
71643;BME280;59438;45.014;39.006;2022-11-04T01:51:17;101359.63;;;10.14;75.42
71643;BME280;59438;45.014;39.006;2022-11-04T01:53:45;101370.19;;;10.11;75.72
71643;BME280;59438;45.014;39.006;2022-11-04T01:56:14;101362.44;;;10.06;75.77
71643;BME280;59438;45.014;39.006;2022-11-04T01:58:44;101372.09;;;10.04;75.69
71643;BME280;59438;45.014;39.006;2022-11-04T02:01:12;101373.09;;;10.00;75.07
71643;BME280;59438;45.014;39.006;2022-11-04T02:03:44;101367.00;;;9.98;75.90
71643;BME280;59438;45.014;39.006;2022-11-04T02:06:13;101371.53;;;9.93;75.83
71643;BME280;59438;45.014;39.006;2022-11-04T02:08:41;101367.28;;;9.87;74.98
71643;BME280;59438;45.014;39.006;2022-11-04T02:11:08;101381.25;;;9.87;75.71
71643;BME280;59438;45.014;39.006;2022-11-04T02:13:36;101377.81;;;9.84;75.61
71643;BME280;59438;45.014;39.006;2022-11-04T02:16:10;101388.38;;;9.82;75.94
71643;BME280;59438;45.014;39.006;2022-11-04T02:18:52;101381.28;;;9.86;75.93
71643;BME280;59438;45.014;39.006;2022-11-04T02:21:46;101382.00;;;9.93;76.61
71643;BME280;59438;45.014;39.006;2022-11-04T02:24:56;101391.69;;;9.91;75.55
71643;BME280;59438;45.014;39.006;2022-11-04T02:27:36;101396.84;;;9.94;75.64
71643;BME280;59438;45.014;39.006;2022-11-04T02:30:09;101390.94;;;9.84;75.67
71643;BME280;59438;45.014;39.006;2022-11-04T02:32:52;101400.28;;;9.97;75.58
71643;BME280;59438;45.014;39.006;2022-11-04T02:35:25;101389.88;;;9.93;75.11
71643;BME280;59438;45.014;39.006;2022-11-04T02:37:56;101395.06;;;9.96;74.78
71643;BME280;59438;45.014;39.006;2022-11-04T02:40:32;101361.38;;;9.77;74.89
71643;BME280;59438;45.014;39.006;2022-11-04T02:43:06;101388.09;;;9.95;75.37
71643;BME280;59438;45.014;39.006;2022-11-04T02:45:41;101359.59;;;9.78;75.12
71643;BME280;59438;45.014;39.006;2022-11-04T02:48:14;101388.09;;;9.95;74.95
71643;BME280;59438;45.014;39.006;2022-11-04T02:50:49;101368.22;;;9.84;75.06
71643;BME280;59438;45.014;39.006;2022-11-04T02:53:20;101376.75;;;9.93;75.23
71643;BME280;59438;45.014;39.006;2022-11-04T02:55:51;101374.16;;;9.93;75.32
71643;BME280;59438;45.014;39.006;2022-11-04T02:58:23;101366.34;;;9.88;75.80
71643;BME280;59438;45.014;39.006;2022-11-04T03:00:53;101366.31;;;9.89;75.45
71643;BME280;59438;45.014;39.006;2022-11-04T03:03:23;101363.72;;;9.88;75.90
71643;BME280;59438;45.014;39.006;2022-11-04T03:05:52;101376.00;;;9.87;75.57
71643;BME280;59438;45.014;39.006;2022-11-04T03:08:23;101370.84;;;9.84;75.25
71643;BME280;59438;45.014;39.006;2022-11-04T03:10:53;101372.63;;;9.82;75.25
71643;BME280;59438;45.014;39.006;2022-11-04T03:13:24;101372.66;;;9.81;75.83
71643;BME280;59438;45.014;39.006;2022-11-04T03:15:58;101356.16;;;9.76;76.35
71643;BME280;59438;45.014;39.006;2022-11-04T03:18:32;101367.44;;;9.79;75.74
71643;BME280;59438;45.014;39.006;2022-11-04T03:21:01;101357.06;;;9.75;76.06
71643;BME280;59438;45.014;39.006;2022-11-04T03:23:29;101363.03;;;9.80;75.86
71643;BME280;59438;45.014;39.006;2022-11-04T03:26:00;101364.81;;;9.79;75.64
71643;BME280;59438;45.014;39.006;2022-11-04T03:28:36;101368.25;;;9.81;75.34
71643;BME280;59438;45.014;39.006;2022-11-04T03:31:11;101356.34;;;9.68;76.09
71643;BME280;59438;45.014;39.006;2022-11-04T03:33:44;101386.72;;;9.78;76.03
71643;BME280;59438;45.014;39.006;2022-11-04T03:36:12;101397.25;;;9.77;75.22
71643;BME280;59438;45.014;39.006;2022-11-04T03:38:38;101393.81;;;9.73;75.45
71643;BME280;59438;45.014;39.006;2022-11-04T03:41:14;101393.13;;;9.65;75.33
71643;BME280;59438;45.014;39.006;2022-11-04T03:43:43;101393.16;;;9.63;75.58
71643;BME280;59438;45.014;39.006;2022-11-04T03:46:11;101394.09;;;9.59;75.59
71643;BME280;59438;45.014;39.006;2022-11-04T03:48:37;101402.91;;;9.57;75.33
71643;BME280;59438;45.014;39.006;2022-11-04T03:51:04;101399.47;;;9.55;76.01
71643;BME280;59438;45.014;39.006;2022-11-04T03:53:31;101402.09;;;9.55;75.56
71643;BME280;59438;45.014;39.006;2022-11-04T03:56:13;101392.50;;;9.54;76.39
71643;BME280;59438;45.014;39.006;2022-11-04T03:58:51;101390.66;;;9.57;75.54
71643;BME280;59438;45.014;39.006;2022-11-04T04:01:30;101385.38;;;9.59;75.85
71643;BME280;59438;45.014;39.006;2022-11-04T04:04:06;101376.63;;;9.60;76.05
71643;BME280;59438;45.014;39.006;2022-11-04T04:06:35;101381.06;;;9.58;75.77
71643;BME280;59438;45.014;39.006;2022-11-04T04:09:10;101373.09;;;9.61;75.66
71643;BME280;59438;45.014;39.006;2022-11-04T04:11:41;101375.72;;;9.61;76.09
71643;BME280;59438;45.014;39.006;2022-11-04T04:14:16;101375.75;;;9.59;76.42
71643;BME280;59438;45.014;39.006;2022-11-04T04:16:46;101374.97;;;9.56;75.90
71643;BME280;59438;45.014;39.006;2022-11-04T04:19:17;101387.28;;;9.52;75.62
71643;BME280;59438;45.014;39.006;2022-11-04T04:21:48;101387.34;;;9.49;75.80
71643;BME280;59438;45.014;39.006;2022-11-04T04:24:19;101384.81;;;9.46;75.78
71643;BME280;59438;45.014;39.006;2022-11-04T04:26:48;101387.47;;;9.43;76.08
71643;BME280;59438;45.014;39.006;2022-11-04T04:29:17;101388.34;;;9.43;75.48
71643;BME280;59438;45.014;39.006;2022-11-04T04:31:47;101369.47;;;9.26;76.16
71643;BME280;59438;45.014;39.006;2022-11-04T04:34:15;101396.22;;;9.43;75.82
71643;BME280;59438;45.014;39.006;2022-11-04T04:36:45;101372.09;;;9.26;76.19
71643;BME280;59438;45.014;39.006;2022-11-04T04:39:13;101398.00;;;9.41;75.88
71643;BME280;59438;45.014;39.006;2022-11-04T04:41:42;101404.88;;;9.47;76.01
71643;BME280;59438;45.014;39.006;2022-11-04T04:44:13;101399.69;;;9.45;76.61
71643;BME280;59438;45.014;39.006;2022-11-04T04:46:41;101403.19;;;9.44;76.71
71643;BME280;59438;45.014;39.006;2022-11-04T04:49:10;101390.16;;;9.41;76.19
71643;BME280;59438;45.014;39.006;2022-11-04T04:51:39;101392.72;;;9.43;76.32
71643;BME280;59438;45.014;39.006;2022-11-04T04:54:07;101392.66;;;9.46;76.13
71643;BME280;59438;45.014;39.006;2022-11-04T04:56:34;101394.38;;;9.47;76.69
71643;BME280;59438;45.014;39.006;2022-11-04T04:59:00;101400.44;;;9.51;76.55
71643;BME280;59438;45.014;39.006;2022-11-04T05:01:27;101401.25;;;9.53;76.29
71643;BME280;59438;45.014;39.006;2022-11-04T05:03:54;101404.72;;;9.55;76.20
71643;BME280;59438;45.014;39.006;2022-11-04T05:06:21;101419.56;;;9.56;76.03
71643;BME280;59438;45.014;39.006;2022-11-04T05:08:48;101424.81;;;9.56;76.26
71643;BME280;59438;45.014;39.006;2022-11-04T05:11:14;101427.38;;;9.57;76.15
71643;BME280;59438;45.014;39.006;2022-11-04T05:13:41;101437.00;;;9.57;75.63
71643;BME280;59438;45.014;39.006;2022-11-04T05:16:09;101435.38;;;9.51;75.92
71643;BME280;59438;45.014;39.006;2022-11-04T05:18:35;101433.63;;;9.52;76.30
71643;BME280;59438;45.014;39.006;2022-11-04T05:21:03;101443.25;;;9.51;75.54
71643;BME280;59438;45.014;39.006;2022-11-04T05:23:31;101451.09;;;9.53;75.98
71643;BME280;59438;45.014;39.006;2022-11-04T05:25:57;101448.47;;;9.53;76.38
71643;BME280;59438;45.014;39.006;2022-11-04T05:28:24;101452.78;;;9.55;75.92
71643;BME280;59438;45.014;39.006;2022-11-04T05:30:50;101450.22;;;9.54;75.78
71643;BME280;59438;45.014;39.006;2022-11-04T05:33:17;101457.25;;;9.52;75.90
71643;BME280;59438;45.014;39.006;2022-11-04T05:35:44;101453.72;;;9.53;75.80
71643;BME280;59438;45.014;39.006;2022-11-04T05:38:10;101450.34;;;9.47;75.96
71643;BME280;59438;45.014;39.006;2022-11-04T05:40:38;101456.31;;;9.54;75.90
71643;BME280;59438;45.014;39.006;2022-11-04T05:43:04;101456.34;;;9.53;75.38
71643;BME280;59438;45.014;39.006;2022-11-04T05:45:31;101457.19;;;9.53;75.89
71643;BME280;59438;45.014;39.006;2022-11-04T05:47:58;101452.78;;;9.55;75.82
71643;BME280;59438;45.014;39.006;2022-11-04T05:50:24;101453.59;;;9.59;76.07
71643;BME280;59438;45.014;39.006;2022-11-04T05:52:51;101448.34;;;9.59;75.68
71643;BME280;59438;45.014;39.006;2022-11-04T05:55:17;101457.91;;;9.61;75.59
71643;BME280;59438;45.014;39.006;2022-11-04T05:57:45;101460.50;;;9.63;75.52
71643;BME280;59438;45.014;39.006;2022-11-04T06:00:13;101460.50;;;9.63;74.98
71643;BME280;59438;45.014;39.006;2022-11-04T06:02:39;101455.19;;;9.66;75.04
71643;BME280;59438;45.014;39.006;2022-11-04T06:05:07;101456.91;;;9.67;75.45
71643;BME280;59438;45.014;39.006;2022-11-04T06:07:33;101453.41;;;9.68;75.48
71643;BME280;59438;45.014;39.006;2022-11-04T06:10:00;101444.66;;;9.67;75.57
71643;BME280;59438;45.014;39.006;2022-11-04T06:12:26;101446.38;;;9.70;75.59
71643;BME280;59438;45.014;39.006;2022-11-04T06:14:54;101459.28;;;9.79;75.08
71643;BME280;59438;45.014;39.006;2022-11-04T06:17:21;101453.09;;;9.82;74.61
71643;BME280;59438;45.014;39.006;2022-11-04T06:19:48;101461.75;;;9.85;75.15
71643;BME280;59438;45.014;39.006;2022-11-04T06:22:16;101460.78;;;9.89;73.63
71643;BME280;59438;45.014;39.006;2022-11-04T06:24:43;101460.69;;;9.94;73.80
71643;BME280;59438;45.014;39.006;2022-11-04T06:27:10;101461.50;;;9.98;74.42
71643;BME280;59438;45.014;39.006;2022-11-04T06:29:37;101472.75;;;10.03;73.26
71643;BME280;59438;45.014;39.006;2022-11-04T06:32:05;101471.78;;;10.07;73.64
71643;BME280;59438;45.014;39.006;2022-11-04T06:34:31;101474.31;;;10.12;73.28
71643;BME280;59438;45.014;39.006;2022-11-04T06:36:58;101460.13;;;10.19;73.73
71643;BME280;59438;45.014;39.006;2022-11-04T06:39:24;101456.53;;;10.23;73.01
71643;BME280;59438;45.014;39.006;2022-11-04T06:41:51;101457.25;;;10.31;72.19
71643;BME280;59438;45.014;39.006;2022-11-04T06:44:17;101466.63;;;10.41;71.67
71643;BME280;59438;45.014;39.006;2022-11-04T06:46:44;101459.47;;;10.48;71.96
71643;BME280;59438;45.014;39.006;2022-11-04T06:49:13;101466.28;;;10.57;71.57
71643;BME280;59438;45.014;39.006;2022-11-04T06:51:40;101464.38;;;10.62;71.72
71643;BME280;59438;45.014;39.006;2022-11-04T06:54:06;101461.59;;;10.68;70.86
71643;BME280;59438;45.014;39.006;2022-11-04T06:56:33;101456.97;;;10.78;71.66
71643;BME280;59438;45.014;39.006;2022-11-04T06:58:59;101460.28;;;10.84;70.28
71643;BME280;59438;45.014;39.006;2022-11-04T07:01:28;101455.88;;;10.86;69.78
71643;BME280;59438;45.014;39.006;2022-11-04T07:03:57;101452.13;;;10.95;70.37
71643;BME280;59438;45.014;39.006;2022-11-04T07:06:26;101448.44;;;11.02;70.23
71643;BME280;59438;45.014;39.006;2022-11-04T07:08:56;101447.50;;;11.05;69.66
71643;BME280;59438;45.014;39.006;2022-11-04T07:11:22;101450.75;;;11.15;70.54
71643;BME280;59438;45.014;39.006;2022-11-04T07:13:49;101423.78;;;11.06;70.40
71643;BME280;59438;45.014;39.006;2022-11-04T07:16:16;101448.63;;;11.27;70.63
71643;BME280;59438;45.014;39.006;2022-11-04T07:18:42;101445.84;;;11.32;70.21
71643;BME280;59438;45.014;39.006;2022-11-04T07:21:10;101442.38;;;11.32;69.93
71643;BME280;59438;45.014;39.006;2022-11-04T07:23:38;101459.53;;;11.45;70.18
71643;BME280;59438;45.014;39.006;2022-11-04T07:26:07;101432.59;;;11.37;70.00
71643;BME280;59438;45.014;39.006;2022-11-04T07:28:33;101431.53;;;11.42;69.92
71643;BME280;59438;45.014;39.006;2022-11-04T07:31:01;101453.16;;;11.54;69.99
71643;BME280;59438;45.014;39.006;2022-11-04T07:33:28;101444.97;;;11.63;70.16
71643;BME280;59438;45.014;39.006;2022-11-04T07:35:54;101440.53;;;11.65;70.32
71643;BME280;59438;45.014;39.006;2022-11-04T07:38:21;101449.97;;;11.72;70.36
71643;BME280;59438;45.014;39.006;2022-11-04T07:40:49;101455.88;;;11.80;69.87
71643;BME280;59438;45.014;39.006;2022-11-04T07:43:15;101450.50;;;11.83;70.28
71643;BME280;59438;45.014;39.006;2022-11-04T07:45:42;101454.72;;;11.91;70.15
71643;BME280;59438;45.014;39.006;2022-11-04T07:48:08;101456.34;;;11.95;69.97
71643;BME280;59438;45.014;39.006;2022-11-04T07:50:38;101431.19;;;11.84;69.66
71643;BME280;59438;45.014;39.006;2022-11-04T07:53:04;101456.91;;;12.04;69.69
71643;BME280;59438;45.014;39.006;2022-11-04T07:55:31;101461.22;;;12.07;69.82
71643;BME280;59438;45.014;39.006;2022-11-04T07:57:59;101458.28;;;12.16;69.20
71643;BME280;59438;45.014;39.006;2022-11-04T08:00:25;101463.41;;;12.21;69.25
71643;BME280;59438;45.014;39.006;2022-11-04T08:02:51;101456.25;;;12.26;69.37
71643;BME280;59438;45.014;39.006;2022-11-04T08:05:18;101462.13;;;12.34;69.23
71643;BME280;59438;45.014;39.006;2022-11-04T08:07:44;101453.09;;;12.41;68.92
71643;BME280;59438;45.014;39.006;2022-11-04T08:10:11;101451.13;;;12.48;68.79
71643;BME280;59438;45.014;39.006;2022-11-04T08:12:37;101457.91;;;12.55;68.52
71643;BME280;59438;45.014;39.006;2022-11-04T08:15:06;101462.09;;;12.62;68.02
71643;BME280;59438;45.014;39.006;2022-11-04T08:17:33;101447.81;;;12.68;68.01
71643;BME280;59438;45.014;39.006;2022-11-04T08:19:59;101448.50;;;12.75;68.02
71643;BME280;59438;45.014;39.006;2022-11-04T08:22:25;101448.28;;;12.81;67.80
71643;BME280;59438;45.014;39.006;2022-11-04T08:24:52;101441.06;;;12.86;67.69
71643;BME280;59438;45.014;39.006;2022-11-04T08:27:19;101445.94;;;12.97;67.42
71643;BME280;59438;45.014;39.006;2022-11-04T08:29:46;101450.75;;;13.10;67.27
71643;BME280;59438;45.014;39.006;2022-11-04T08:32:14;101445.94;;;13.22;65.86
71643;BME280;59438;45.014;39.006;2022-11-04T08:34:40;101436.09;;;13.27;66.02
71643;BME280;59438;45.014;39.006;2022-11-04T08:37:06;101436.94;;;13.27;65.97
71643;BME280;59438;45.014;39.006;2022-11-04T08:39:33;101438.63;;;13.30;65.51
71643;BME280;59438;45.014;39.006;2022-11-04T08:41:59;101438.56;;;13.32;65.03
71643;BME280;59438;45.014;39.006;2022-11-04T08:44:26;101444.78;;;13.30;65.01
71643;BME280;59438;45.014;39.006;2022-11-04T08:46:52;101434.22;;;13.30;64.85
71643;BME280;59438;45.014;39.006;2022-11-04T08:49:20;101440.41;;;13.29;64.07
71643;BME280;59438;45.014;39.006;2022-11-04T08:51:47;101441.22;;;13.32;64.83
71643;BME280;59438;45.014;39.006;2022-11-04T08:54:13;101433.34;;;13.30;64.70
71643;BME280;59438;45.014;39.006;2022-11-04T08:56:40;101429.75;;;13.33;64.27
71643;BME280;59438;45.014;39.006;2022-11-04T08:59:06;101440.22;;;13.34;64.23
71643;BME280;59438;45.014;39.006;2022-11-04T09:01:35;101427.00;;;13.36;63.94
71643;BME280;59438;45.014;39.006;2022-11-04T09:04:01;101427.94;;;13.35;64.39
71643;BME280;59438;45.014;39.006;2022-11-04T09:06:31;101426.25;;;13.32;63.64
71643;BME280;59438;45.014;39.006;2022-11-04T09:08:58;101429.69;;;13.34;64.44
71643;BME280;59438;45.014;39.006;2022-11-04T09:11:25;101426.19;;;13.34;64.22
71643;BME280;59438;45.014;39.006;2022-11-04T09:13:51;101425.28;;;13.35;63.94
71643;BME280;59438;45.014;39.006;2022-11-04T09:16:18;101422.50;;;13.38;64.60
71643;BME280;59438;45.014;39.006;2022-11-04T09:18:44;101421.38;;;13.45;64.26
71643;BME280;59438;45.014;39.006;2022-11-04T09:21:11;101413.09;;;13.54;64.10
71643;BME280;59438;45.014;39.006;2022-11-04T09:23:39;101411.88;;;13.63;62.63
71643;BME280;59438;45.014;39.006;2022-11-04T09:26:08;101408.09;;;13.70;62.54
71643;BME280;59438;45.014;39.006;2022-11-04T09:28:35;101407.91;;;13.75;63.14
71643;BME280;59438;45.014;39.006;2022-11-04T09:31:06;101405.88;;;13.81;61.23
71643;BME280;59438;45.014;39.006;2022-11-04T09:33:33;101399.41;;;13.90;62.85
71643;BME280;59438;45.014;39.006;2022-11-04T09:35:59;101391.09;;;13.99;63.07
71643;BME280;59438;45.014;39.006;2022-11-04T09:38:25;101390.66;;;14.10;62.50
71643;BME280;59438;45.014;39.006;2022-11-04T09:40:54;101392.16;;;14.17;61.91
71643;BME280;59438;45.014;39.006;2022-11-04T09:43:31;101400.88;;;14.19;60.65
71643;BME280;59438;45.014;39.006;2022-11-04T09:46:02;101397.44;;;14.17;61.88
71643;BME280;59438;45.014;39.006;2022-11-04T09:48:32;101402.03;;;14.12;61.14
71643;BME280;59438;45.014;39.006;2022-11-04T09:51:01;101385.81;;;13.99;61.75
71643;BME280;59438;45.014;39.006;2022-11-04T09:53:34;101396.38;;;13.99;60.88
71643;BME280;59438;45.014;39.006;2022-11-04T09:56:07;101395.63;;;13.96;60.88
71643;BME280;59438;45.014;39.006;2022-11-04T09:58:37;101391.41;;;13.91;61.96
71643;BME280;59438;45.014;39.006;2022-11-04T10:01:13;101393.94;;;13.95;60.87
71643;BME280;59438;45.014;39.006;2022-11-04T10:03:50;101393.94;;;13.95;61.16
71643;BME280;59438;45.014;39.006;2022-11-04T10:06:34;101393.09;;;13.94;60.89
71643;BME280;59438;45.014;39.006;2022-11-04T10:09:17;101386.22;;;13.90;60.67
71643;BME280;59438;45.014;39.006;2022-11-04T10:11:59;101379.38;;;13.84;60.42
71643;BME280;59438;45.014;39.006;2022-11-04T10:17:32;101381.50;;;13.75;60.58
71643;BME280;59438;45.014;39.006;2022-11-04T10:20:18;101372.78;;;13.73;61.17
71643;BME280;59438;45.014;39.006;2022-11-04T10:22:54;101384.06;;;13.78;60.21
71643;BME280;59438;45.014;39.006;2022-11-04T10:25:24;101356.22;;;13.69;61.37
71643;BME280;59438;45.014;39.006;2022-11-04T10:27:55;101377.41;;;13.89;60.04
71643;BME280;59438;45.014;39.006;2022-11-04T10:30:23;101346.16;;;13.79;60.84
71643;BME280;59438;45.014;39.006;2022-11-04T10:32:59;101370.78;;;14.01;59.56
71643;BME280;59438;45.014;39.006;2022-11-04T10:35:31;101364.50;;;14.04;59.20
71643;BME280;59438;45.014;39.006;2022-11-04T10:38:14;101360.88;;;14.06;59.59
71643;BME280;59438;45.014;39.006;2022-11-04T10:40:44;101364.44;;;14.05;59.61
71643;BME280;59438;45.014;39.006;2022-11-04T10:43:27;101360.88;;;14.06;59.50
71643;BME280;59438;45.014;39.006;2022-11-04T10:46:05;101346.78;;;14.06;59.26
71643;BME280;59438;45.014;39.006;2022-11-04T10:48:37;101359.75;;;14.12;59.72
71643;BME280;59438;45.014;39.006;2022-11-04T10:51:08;101347.34;;;14.14;60.07
71643;BME280;59438;45.014;39.006;2022-11-04T10:53:35;101356.22;;;14.13;60.27
71643;BME280;59438;45.014;39.006;2022-11-04T10:56:06;101335.31;;;14.07;59.39
71643;BME280;59438;45.014;39.006;2022-11-04T10:58:44;101353.38;;;14.18;58.92
71643;BME280;59438;45.014;39.006;2022-11-04T11:01:23;101327.19;;;14.11;58.89
71643;BME280;59438;45.014;39.006;2022-11-04T11:03:50;101360.44;;;14.17;59.96
71643;BME280;59438;45.014;39.006;2022-11-04T11:06:24;101362.34;;;14.14;58.96
71643;BME280;59438;45.014;39.006;2022-11-04T11:08:54;101364.31;;;14.08;59.45
71643;BME280;59438;45.014;39.006;2022-11-04T11:11:36;101364.38;;;14.07;58.80
71643;BME280;59438;45.014;39.006;2022-11-04T11:14:15;101353.88;;;14.05;58.62
71643;BME280;59438;45.014;39.006;2022-11-04T11:16:41;101361.84;;;14.04;60.17
71643;BME280;59438;45.014;39.006;2022-11-04T11:19:18;101343.69;;;13.96;58.64
71643;BME280;59438;45.014;39.006;2022-11-04T11:21:46;101354.97;;;14.00;59.16
71643;BME280;59438;45.014;39.006;2022-11-04T11:24:15;101328.22;;;13.87;59.13
71643;BME280;59438;45.014;39.006;2022-11-04T11:26:43;101356.56;;;14.04;57.26
71643;BME280;59438;45.014;39.006;2022-11-04T11:29:11;101352.41;;;13.98;58.06
71643;BME280;59438;45.014;39.006;2022-11-04T11:31:38;101352.66;;;13.92;59.18
71643;BME280;59438;45.014;39.006;2022-11-04T11:34:13;101349.41;;;13.85;57.67
71643;BME280;59438;45.014;39.006;2022-11-04T11:36:42;101357.41;;;13.84;58.91
71643;BME280;59438;45.014;39.006;2022-11-04T11:39:14;101333.34;;;13.69;57.95
71643;BME280;59438;45.014;39.006;2022-11-04T11:41:53;101353.03;;;13.83;57.87
71643;BME280;59438;45.014;39.006;2022-11-04T11:44:25;101348.72;;;13.80;58.10
71643;BME280;59438;45.014;39.006;2022-11-04T11:46:54;101352.22;;;13.81;59.40
71643;BME280;59438;45.014;39.006;2022-11-04T11:49:26;101333.13;;;13.74;57.60
71643;BME280;59438;45.014;39.006;2022-11-04T11:51:53;101355.56;;;13.86;59.25
71643;BME280;59438;45.014;39.006;2022-11-04T11:54:27;101333.94;;;13.76;59.02
71643;BME280;59438;45.014;39.006;2022-11-04T11:56:59;101357.41;;;13.84;59.87
71643;BME280;59438;45.014;39.006;2022-11-04T11:59:29;101364.94;;;13.93;58.99
71643;BME280;59438;45.014;39.006;2022-11-04T12:02:19;101358.25;;;13.84;60.44
71643;BME280;59438;45.014;39.006;2022-11-04T12:04:48;101337.72;;;13.69;60.65
71643;BME280;59438;45.014;39.006;2022-11-04T12:07:19;101360.94;;;13.83;60.91
71643;BME280;59438;45.014;39.006;2022-11-04T12:09:54;101342.66;;;13.78;60.88
71643;BME280;59438;45.014;39.006;2022-11-04T12:12:37;101345.91;;;13.85;59.94
71643;BME280;59438;45.014;39.006;2022-11-04T12:15:21;101362.91;;;14.00;60.29
71643;BME280;59438;45.014;39.006;2022-11-04T12:18:02;101371.75;;;13.99;60.59
71643;BME280;59438;45.014;39.006;2022-11-04T12:20:40;101375.44;;;13.95;60.80
71643;BME280;59438;45.014;39.006;2022-11-04T12:23:16;101347.09;;;13.78;60.67
71643;BME280;59438;45.014;39.006;2022-11-04T12:25:54;101367.78;;;13.88;60.74
71643;BME280;59438;45.014;39.006;2022-11-04T12:28:28;101367.06;;;13.83;61.07
71643;BME280;59438;45.014;39.006;2022-11-04T12:31:11;101366.28;;;13.81;61.03
71643;BME280;59438;45.014;39.006;2022-11-04T12:33:45;101355.97;;;13.75;61.26
71643;BME280;59438;45.014;39.006;2022-11-04T12:36:32;101377.88;;;13.77;61.40
71643;BME280;59438;45.014;39.006;2022-11-04T12:39:15;101370.09;;;13.74;61.49
71643;BME280;59438;45.014;39.006;2022-11-04T12:41:51;101379.13;;;13.68;61.95
71643;BME280;59438;45.014;39.006;2022-11-04T12:44:30;101374.88;;;13.64;61.78
71643;BME280;59438;45.014;39.006;2022-11-04T12:47:08;101369.84;;;13.58;61.83
71643;BME280;59438;45.014;39.006;2022-11-04T12:49:48;101380.53;;;13.55;62.13
71643;BME280;59438;45.014;39.006;2022-11-04T12:52:31;101386.94;;;13.48;62.41
71643;BME280;59438;45.014;39.006;2022-11-04T12:55:16;101377.66;;;13.38;62.86
71643;BME280;59438;45.014;39.006;2022-11-04T12:57:51;101379.50;;;13.36;63.01
71643;BME280;59438;45.014;39.006;2022-11-04T13:00:21;101387.47;;;13.34;63.21